Bookmark and Share
Track history (hours):
 

Kimberly Turecamo

More information available from US FCC via Universal Licensing System and Coast Guard Vessel Documentation Center.

Last reported at 2014-Apr-18 10:33 UTC. Time now 2014-Apr-18 10:47 UTC.
Position N 40°45' W 074°01'.

Length 33 m; draft 5.1 m.

Type: Tow > 200 m length. MMSI: 367061980.

NotesDate/timePositionNaut miles runAvg speedWind from/ knotsBaromVisibWave heightAir tempDewpointWater temp
2014-Apr-18 10:33N 40°45' W 074°01'0 0.4
2014-Apr-18 09:33N 40°45' W 074°01'7 7.3
2014-Apr-18 08:34N 40°39' W 074°07'1 0.9
2014-Apr-18 07:33N 40°38' W 074°08'0 0.0
2014-Apr-18 06:33N 40°38' W 074°08'0 0.0
2014-Apr-18 05:33N 40°38' W 074°08'0 0.0
2014-Apr-18 04:30N 40°38' W 074°08'0 0.0
2014-Apr-18 03:31N 40°38' W 074°08'0 0.0
2014-Apr-18 02:32N 40°38' W 074°08'0 0.0
2014-Apr-18 01:25N 40°38' W 074°08'0 0.0
2014-Apr-18 00:33N 40°38' W 074°08'0 0.0
2014-Apr-17 23:33N 40°38' W 074°08'3 3.5
2014-Apr-17 22:33N 40°38' W 074°03'12 9.5
2014-Apr-17 21:20N 40°30' W 073°52'2 1.1
2014-Apr-17 19:32N 40°28' W 073°52'4 4.3
2014-Apr-17 18:32N 40°30' W 073°57'0 0.1
2014-Apr-17 17:31N 40°30' W 073°57'3 3.0
2014-Apr-17 16:33N 40°32' W 074°00'9 9.0
2014-Apr-17 15:33N 40°38' W 074°08'0 0.0
2014-Apr-17 14:33N 40°38' W 074°08'0 0.0
2014-Apr-17 13:33N 40°38' W 074°08'0 0.0
2014-Apr-17 12:33N 40°38' W 074°08'1 1.3
2014-Apr-17 11:33N 40°40' W 074°09'0 0.1
2014-Apr-17 10:32N 40°40' W 074°09'4 4.0
2014-Apr-17 09:33N 40°39' W 074°03'1 0.7
2014-Apr-17 08:33N 40°40' W 074°04'1 1.1
2014-Apr-17 07:33N 40°39' W 074°05'2 2.1
2014-Apr-17 06:33N 40°38' W 074°08'0 0.0
2014-Apr-17 05:33N 40°38' W 074°08'0 0.0
2014-Apr-17 04:33N 40°38' W 074°08'0 0.0
2014-Apr-17 03:33N 40°38' W 074°08'2 2.1
2014-Apr-17 02:33N 40°41' W 074°08'1 1.4
2014-Apr-17 01:33N 40°42' W 074°09'4 3.9
2014-Apr-17 00:33N 40°39' W 074°05'4 4.4
2014-Apr-16 23:34N 40°41' W 074°00'6 6.4
2014-Apr-16 22:33N 40°40' W 074°08'1 0.6
2014-Apr-16 21:33N 40°40' W 074°08'2 2.0
2014-Apr-16 20:33N 40°38' W 074°08'0 0.0
2014-Apr-16 19:34N 40°38' W 074°08'0 0.0
2014-Apr-16 18:33N 40°38' W 074°08'0 0.0
2014-Apr-16 17:33N 40°38' W 074°08'3 3.1
2014-Apr-16 16:33N 40°40' W 074°04'1 1.3
2014-Apr-16 15:34N 40°39' W 074°03'4 3.6
2014-Apr-16 14:33N 40°38' W 074°08'0 0.0
2014-Apr-16 13:33N 40°38' W 074°08'0 0.0
2014-Apr-16 12:34N 40°38' W 074°08'0 0.0
2014-Apr-16 11:33N 40°38' W 074°08'6 6.0
2014-Apr-16 10:33N 40°41' W 074°01'3 2.8
2014-Apr-16 09:33N 40°39' W 074°03'4 3.6
2014-Apr-16 08:33N 40°38' W 074°08'0 0.0
2014-Apr-16 07:33N 40°38' W 074°08'0 0.0
2014-Apr-16 06:33N 40°38' W 074°08'0 0.0
2014-Apr-16 05:33N 40°38' W 074°08'0 0.0
2014-Apr-16 04:33N 40°38' W 074°08'0 0.0
2014-Apr-16 03:33N 40°38' W 074°08'0 0.0
2014-Apr-16 02:33N 40°38' W 074°08'0 0.0
2014-Apr-16 01:33N 40°38' W 074°08'0 0.0
2014-Apr-16 00:33N 40°38' W 074°08'0 0.0
2014-Apr-15 23:33N 40°38' W 074°08'0 0.0
2014-Apr-15 22:33N 40°38' W 074°08'0 0.0
2014-Apr-15 21:33N 40°38' W 074°08'0 0.0
2014-Apr-15 20:33N 40°38' W 074°08'0 0.0
2014-Apr-15 19:33N 40°38' W 074°08'0 0.0
2014-Apr-15 18:33N 40°38' W 074°08'0 0.0
2014-Apr-15 17:33N 40°38' W 074°08'0 0.0
2014-Apr-15 16:33N 40°38' W 074°08'1 1.1
2014-Apr-15 15:33N 40°39' W 074°09'1 1.1
2014-Apr-15 14:33N 40°40' W 074°08'2 0.4
2014-Apr-15 10:34N 40°38' W 074°08'0 0.0
2014-Apr-15 09:34N 40°38' W 074°08'0 0.0
2014-Apr-15 08:34N 40°38' W 074°08'0 0.0
2014-Apr-15 07:34N 40°38' W 074°08'0 0.0
2014-Apr-15 06:34N 40°38' W 074°08'6 6.1
2014-Apr-15 05:34N 40°41' W 074°01'0 0.1
2014-Apr-15 03:34N 40°41' W 074°01'4 3.9
2014-Apr-15 02:34N 40°39' W 074°05'2 2.1
2014-Apr-15 01:34N 40°38' W 074°08'10 3.1
2014-Apr-14 22:30N 40°31' W 074°15'5 5.4
2014-Apr-14 21:31N 40°36' W 074°12'4 4.5
2014-Apr-14 20:32N 40°38' W 074°08'0 0.0
2014-Apr-14 19:33N 40°38' W 074°08'0 0.0
2014-Apr-14 18:34N 40°38' W 074°08'0 0.0
2014-Apr-14 17:34N 40°38' W 074°08'0 0.0
2014-Apr-14 16:34N 40°38' W 074°08'0 0.0
2014-Apr-14 15:34N 40°38' W 074°08'0 0.0
2014-Apr-14 14:30N 40°38' W 074°08'0 0.0
2014-Apr-14 13:34N 40°38' W 074°08'1 0.7
2014-Apr-14 11:34N 40°39' W 074°06'4 3.8
2014-Apr-14 10:34N 40°40' W 074°01'6 6.2
2014-Apr-14 09:34N 40°41' W 074°09'1 1.1
2014-Apr-14 08:33N 40°40' W 074°08'2 1.8
2014-Apr-14 07:34N 40°38' W 074°08'0 0.0
2014-Apr-14 06:33N 40°38' W 074°08'0 0.0
2014-Apr-14 05:33N 40°38' W 074°08'1 0.2
2014-Apr-13 22:33N 40°39' W 074°06'1 1.1
2014-Apr-13 21:33N 40°38' W 074°08'0 0.0
2014-Apr-13 20:33N 40°38' W 074°08'0 0.0
2014-Apr-13 19:33N 40°38' W 074°08'0 0.0
2014-Apr-13 18:33N 40°38' W 074°08'0 0.0
2014-Apr-13 17:33N 40°38' W 074°08'1 1.5
2014-Apr-13 16:33N 40°40' W 074°08'1 1.2
2014-Apr-13 15:33N 40°39' W 074°09'1 0.9
2014-Apr-13 14:33N 40°38' W 074°08'0 0.0
2014-Apr-13 13:33N 40°38' W 074°08'0 0.0
2014-Apr-13 12:33N 40°38' W 074°08'0 0.0
2014-Apr-13 11:33N 40°38' W 074°08'0 0.0
2014-Apr-13 10:33N 40°38' W 074°08'6 5.3
2014-Apr-13 09:30N 40°34' W 074°13'2 0.8
2014-Apr-13 07:31N 40°33' W 074°14'1 0.6
2014-Apr-13 06:21N 40°33' W 074°15'0 0.5
2014-Apr-13 05:33N 40°33' W 074°15'5 5.0
2014-Apr-13 04:34N 40°37' W 074°12'4 3.7
2014-Apr-13 03:33N 40°38' W 074°08'0 0.0
2014-Apr-13 02:33N 40°38' W 074°08'0 0.0
2014-Apr-13 01:33N 40°38' W 074°08'0 0.0
2014-Apr-13 00:34N 40°38' W 074°08'0 0.0
2014-Apr-12 23:33N 40°38' W 074°08'3 2.1
2014-Apr-12 22:17N 40°39' W 074°11'3 4.1
2014-Apr-12 21:33N 40°39' W 074°07'0 0.3
2014-Apr-12 20:32N 40°38' W 074°08'0 0.0
2014-Apr-12 19:33N 40°38' W 074°08'0 0.0
2014-Apr-12 18:33N 40°38' W 074°08'0 0.0
2014-Apr-12 17:33N 40°38' W 074°08'0 0.0
2014-Apr-12 16:33N 40°38' W 074°08'0 0.0
2014-Apr-12 15:33N 40°38' W 074°08'0 0.0
2014-Apr-12 14:33N 40°38' W 074°08'0 0.0
2014-Apr-12 13:33N 40°38' W 074°08'4 3.6
2014-Apr-12 12:33N 40°38' W 074°03'9 6.8
2014-Apr-12 11:16N 40°30' W 073°57'5 6.7
2014-Apr-12 10:33N 40°28' W 073°52'7 6.5
2014-Apr-12 09:33N 40°31' W 073°59'7 7.4
2014-Apr-12 08:33N 40°38' W 074°03'3 3.5
2014-Apr-12 07:33N 40°38' W 074°08'0 0.0
2014-Apr-12 06:33N 40°38' W 074°08'0 0.0
2014-Apr-12 05:33N 40°38' W 074°08'0 0.0
2014-Apr-12 04:33N 40°38' W 074°08'0 0.0
2014-Apr-12 03:33N 40°38' W 074°08'0 0.0
2014-Apr-12 02:33N 40°38' W 074°08'0 0.0
2014-Apr-12 01:33N 40°38' W 074°08'0 0.0
2014-Apr-12 00:33N 40°38' W 074°08'0 0.0
2014-Apr-11 23:33N 40°38' W 074°08'0 0.0
2014-Apr-11 22:33N 40°38' W 074°08'0 0.0
2014-Apr-11 21:33N 40°38' W 074°08'0 0.0
2014-Apr-11 20:33N 40°38' W 074°08'0 0.0
2014-Apr-11 19:33N 40°38' W 074°08'0 0.0
2014-Apr-11 18:33N 40°38' W 074°08'2 1.9
2014-Apr-11 17:33N 40°39' W 074°05'0 0.0
2014-Apr-11 16:33N 40°39' W 074°05'2 1.9
2014-Apr-11 15:33N 40°38' W 074°08'3 2.6
2014-Apr-11 14:33N 40°39' W 074°11'10 3.8
2014-Apr-11 12:04N 40°30' W 074°15'4 6.3
2014-Apr-11 11:26N 40°33' W 074°14'7 7.8
2014-Apr-11 10:34N 40°38' W 074°08'0 0.0
2014-Apr-11 09:33N 40°38' W 074°08'0 0.0
2014-Apr-11 08:33N 40°38' W 074°08'0 0.0
2014-Apr-11 07:33N 40°38' W 074°08'0 0.0
2014-Apr-11 06:33N 40°38' W 074°08'0 0.0
2014-Apr-11 05:33N 40°38' W 074°08'0 0.0
2014-Apr-11 04:33N 40°38' W 074°08'0 0.0
2014-Apr-11 03:33N 40°38' W 074°08'0 0.0
2014-Apr-11 02:33N 40°38' W 074°08'0 0.0
2014-Apr-11 01:33N 40°38' W 074°08'0 0.0
2014-Apr-11 00:32N 40°38' W 074°08'0 0.0
2014-Apr-10 23:33N 40°38' W 074°08'0 0.0
2014-Apr-10 22:33N 40°38' W 074°08'3 2.6
2014-Apr-10 21:33N 40°41' W 074°08'0 0.3
2014-Apr-10 20:33N 40°41' W 074°09'2 2.3
2014-Apr-10 19:33N 40°38' W 074°08'0 0.0
2014-Apr-10 18:33N 40°38' W 074°08'0 0.0
2014-Apr-10 17:33N 40°38' W 074°08'0 0.0
2014-Apr-10 16:33N 40°38' W 074°08'0 0.0
2014-Apr-10 15:33N 40°38' W 074°08'0 0.0
2014-Apr-10 14:33N 40°38' W 074°08'0 0.1
2014-Apr-10 13:33N 40°39' W 074°08'5 4.4
2014-Apr-10 12:18N 40°35' W 074°13'2 1.9
2014-Apr-10 11:21N 40°36' W 074°12'1 1.0
2014-Apr-10 10:33N 40°37' W 074°12'4 3.6
2014-Apr-10 09:33N 40°38' W 074°08'0 0.0
2014-Apr-10 08:33N 40°38' W 074°08'0 0.0
2014-Apr-10 07:33N 40°38' W 074°08'0 0.0
2014-Apr-10 06:33N 40°38' W 074°08'0 0.0
2014-Apr-10 05:33N 40°38' W 074°08'0 0.0
2014-Apr-10 04:33N 40°38' W 074°08'0 0.0
2014-Apr-10 03:33N 40°38' W 074°08'5 4.7
2014-Apr-10 02:30N 40°35' W 074°13'1 0.6
2014-Apr-10 01:14N 40°36' W 074°12'6 9.4
2014-Apr-10 00:33N 40°41' W 074°08'3 2.6
2014-Apr-09 23:29N 40°39' W 074°09'4 4.7
2014-Apr-09 22:33N 40°38' W 074°03'4 3.6
2014-Apr-09 21:33N 40°38' W 074°08'11 3.5
2014-Apr-09 18:33N 40°30' W 074°15'9 9.2
2014-Apr-09 17:33N 40°38' W 074°12'2 2.3
2014-Apr-09 16:33N 40°39' W 074°09'1 0.9
2014-Apr-09 15:33N 40°39' W 074°08'0 0.3
2014-Apr-09 14:33N 40°39' W 074°08'2 1.6
2014-Apr-09 13:34N 40°40' W 074°09'2 1.7
2014-Apr-09 12:33N 40°38' W 074°08'0 0.0
2014-Apr-09 11:33N 40°38' W 074°08'0 0.0
2014-Apr-09 10:33N 40°38' W 074°08'5 2.1
2014-Apr-09 08:15N 40°35' W 074°12'1 0.6
2014-Apr-09 07:22N 40°35' W 074°13'5 6.5
2014-Apr-09 06:33N 40°38' W 074°08'0 0.0
2014-Apr-09 05:33N 40°38' W 074°08'3 2.8
2014-Apr-09 04:33N 40°40' W 074°05'3 2.9
2014-Apr-09 03:33N 40°38' W 074°03'4 3.7
2014-Apr-09 02:33N 40°38' W 074°08'0 0.0
2014-Apr-09 01:33N 40°38' W 074°08'0 0.0
2014-Apr-09 00:33N 40°38' W 074°08'0 0.0
2014-Apr-08 23:33N 40°38' W 074°08'5 4.7
2014-Apr-08 22:33N 40°41' W 074°02'4 0.8
2014-Apr-08 17:33N 40°45' W 074°01'4 4.3
2014-Apr-08 16:33N 40°47' W 073°56'1 0.9
2014-Apr-08 15:33N 40°46' W 073°57'6 6.3
2014-Apr-08 14:33N 40°41' W 074°01'6 5.5
2014-Apr-08 13:33N 40°38' W 074°08'0 0.0
2014-Apr-08 12:33N 40°38' W 074°08'0 0.0
2014-Apr-08 11:33N 40°38' W 074°08'0 0.0
2014-Apr-08 10:33N 40°38' W 074°08'  

Dump ship's entire track history

sailing weather and tide predictions

Kimberly Turecamo — WDC6838 — position and weather